sensor_id;sensor_type;location;lat;lon;timestamp;temperature;humidity
70928;SHT31;58587;53.034;18.576;2023-05-16T00:01:06;12.46;93.03
70928;SHT31;58587;53.034;18.576;2023-05-16T00:03:33;12.49;93.13
70928;SHT31;58587;53.034;18.576;2023-05-16T00:05:58;12.48;92.83
70928;SHT31;58587;53.034;18.576;2023-05-16T00:08:26;12.46;92.78
70928;SHT31;58587;53.034;18.576;2023-05-16T00:10:52;12.42;93.20
70928;SHT31;58587;53.034;18.576;2023-05-16T00:13:17;12.41;92.89
70928;SHT31;58587;53.034;18.576;2023-05-16T00:15:46;12.45;92.70
70928;SHT31;58587;53.034;18.576;2023-05-16T00:18:11;12.42;92.90
70928;SHT31;58587;53.034;18.576;2023-05-16T00:20:40;12.40;92.64
70928;SHT31;58587;53.034;18.576;2023-05-16T00:23:06;12.48;92.00
70928;SHT31;58587;53.034;18.576;2023-05-16T00:25:31;12.41;92.26
70928;SHT31;58587;53.034;18.576;2023-05-16T00:27:57;12.41;92.27
70928;SHT31;58587;53.034;18.576;2023-05-16T00:30:22;12.38;92.22
70928;SHT31;58587;53.034;18.576;2023-05-16T00:32:47;12.35;92.27
70928;SHT31;58587;53.034;18.576;2023-05-16T00:35:13;12.31;92.50
70928;SHT31;58587;53.034;18.576;2023-05-16T00:37:38;12.27;92.30
70928;SHT31;58587;53.034;18.576;2023-05-16T00:40:04;12.22;92.56
70928;SHT31;58587;53.034;18.576;2023-05-16T00:42:30;12.27;92.70
70928;SHT31;58587;53.034;18.576;2023-05-16T00:44:55;12.27;92.22
70928;SHT31;58587;53.034;18.576;2023-05-16T00:47:21;12.16;92.23
70928;SHT31;58587;53.034;18.576;2023-05-16T00:49:46;12.21;92.67
70928;SHT31;58587;53.034;18.576;2023-05-16T00:52:12;12.22;92.80
70928;SHT31;58587;53.034;18.576;2023-05-16T00:54:37;12.20;92.64
70928;SHT31;58587;53.034;18.576;2023-05-16T00:57:03;12.11;92.83
70928;SHT31;58587;53.034;18.576;2023-05-16T00:59:29;12.10;93.00
70928;SHT31;58587;53.034;18.576;2023-05-16T01:01:54;12.17;92.39
70928;SHT31;58587;53.034;18.576;2023-05-16T01:04:20;12.14;92.42
70928;SHT31;58587;53.034;18.576;2023-05-16T01:06:46;12.13;92.69
70928;SHT31;58587;53.034;18.576;2023-05-16T01:09:12;12.10;92.09
70928;SHT31;58587;53.034;18.576;2023-05-16T01:12:16;12.08;92.31
70928;SHT31;58587;53.034;18.576;2023-05-16T01:17:56;12.11;92.00
70928;SHT31;58587;53.034;18.576;2023-05-16T01:20:42;12.05;92.07
70928;SHT31;58587;53.034;18.576;2023-05-16T01:28:38;12.02;91.83
70928;SHT31;58587;53.034;18.576;2023-05-16T01:31:03;12.05;92.50
70928;SHT31;58587;53.034;18.576;2023-05-16T01:33:29;11.97;91.98
70928;SHT31;58587;53.034;18.576;2023-05-16T01:35:57;11.94;92.44
70928;SHT31;58587;53.034;18.576;2023-05-16T01:38:25;11.95;92.82
70928;SHT31;58587;53.034;18.576;2023-05-16T01:41:03;11.94;92.09
70928;SHT31;58587;53.034;18.576;2023-05-16T01:43:36;11.84;92.63
70928;SHT31;58587;53.034;18.576;2023-05-16T01:46:10;11.89;92.61
70928;SHT31;58587;53.034;18.576;2023-05-16T01:48:55;11.79;92.23
70928;SHT31;58587;53.034;18.576;2023-05-16T01:51:23;11.83;92.83
70928;SHT31;58587;53.034;18.576;2023-05-16T01:53:51;11.83;92.60
70928;SHT31;58587;53.034;18.576;2023-05-16T01:56:17;11.86;92.58
70928;SHT31;58587;53.034;18.576;2023-05-16T01:58:44;11.81;92.75
70928;SHT31;58587;53.034;18.576;2023-05-16T02:01:12;11.84;92.90
70928;SHT31;58587;53.034;18.576;2023-05-16T02:03:37;11.84;92.53
70928;SHT31;58587;53.034;18.576;2023-05-16T02:06:03;11.79;92.44
70928;SHT31;58587;53.034;18.576;2023-05-16T02:08:29;11.86;92.59
70928;SHT31;58587;53.034;18.576;2023-05-16T02:10:54;11.86;92.62
70928;SHT31;58587;53.034;18.576;2023-05-16T02:13:20;11.89;92.48
70928;SHT31;58587;53.034;18.576;2023-05-16T02:15:45;11.83;92.78
70928;SHT31;58587;53.034;18.576;2023-05-16T02:18:10;11.86;92.56
70928;SHT31;58587;53.034;18.576;2023-05-16T02:20:36;11.89;92.71
70928;SHT31;58587;53.034;18.576;2023-05-16T02:23:02;11.90;92.35
70928;SHT31;58587;53.034;18.576;2023-05-16T02:25:28;11.86;92.56
70928;SHT31;58587;53.034;18.576;2023-05-16T02:27:53;11.83;92.78
70928;SHT31;58587;53.034;18.576;2023-05-16T02:30:19;11.84;92.47
70928;SHT31;58587;53.034;18.576;2023-05-16T02:32:44;11.80;92.77
70928;SHT31;58587;53.034;18.576;2023-05-16T02:35:10;11.81;92.43
70928;SHT31;58587;53.034;18.576;2023-05-16T02:37:36;11.79;92.65
70928;SHT31;58587;53.034;18.576;2023-05-16T02:40:02;11.76;92.91
70928;SHT31;58587;53.034;18.576;2023-05-16T02:42:30;11.80;92.51
70928;SHT31;58587;53.034;18.576;2023-05-16T02:44:56;11.73;92.66
70928;SHT31;58587;53.034;18.576;2023-05-16T02:47:21;11.79;92.26
70928;SHT31;58587;53.034;18.576;2023-05-16T02:49:46;11.81;92.18
70928;SHT31;58587;53.034;18.576;2023-05-16T02:52:11;11.79;92.65
70928;SHT31;58587;53.034;18.576;2023-05-16T02:54:37;11.83;91.86
70928;SHT31;58587;53.034;18.576;2023-05-16T02:57:03;11.76;92.07
70928;SHT31;58587;53.034;18.576;2023-05-16T02:59:28;11.77;92.49
70928;SHT31;58587;53.034;18.576;2023-05-16T03:01:54;11.74;92.48
70928;SHT31;58587;53.034;18.576;2023-05-16T03:04:19;11.79;92.58
70928;SHT31;58587;53.034;18.576;2023-05-16T03:06:44;11.81;92.47
70928;SHT31;58587;53.034;18.576;2023-05-16T03:09:10;11.80;91.74
70928;SHT31;58587;53.034;18.576;2023-05-16T03:11:36;11.71;91.67
70928;SHT31;58587;53.034;18.576;2023-05-16T03:14:01;11.77;91.98
70928;SHT31;58587;53.034;18.576;2023-05-16T03:16:27;11.74;92.07
70928;SHT31;58587;53.034;18.576;2023-05-16T03:18:52;11.74;91.64
70928;SHT31;58587;53.034;18.576;2023-05-16T03:21:18;11.77;92.18
70928;SHT31;58587;53.034;18.576;2023-05-16T03:23:43;11.70;92.21
70928;SHT31;58587;53.034;18.576;2023-05-16T03:26:08;11.71;92.33
70928;SHT31;58587;53.034;18.576;2023-05-16T03:28:34;11.70;92.06
70928;SHT31;58587;53.034;18.576;2023-05-16T03:30:59;11.66;92.28
70928;SHT31;58587;53.034;18.576;2023-05-16T03:33:25;11.71;91.71
70928;SHT31;58587;53.034;18.576;2023-05-16T03:35:50;11.73;91.53
70928;SHT31;58587;53.034;18.576;2023-05-16T03:38:16;11.70;91.40
70928;SHT31;58587;53.034;18.576;2023-05-16T03:40:42;11.77;91.36
70928;SHT31;58587;53.034;18.576;2023-05-16T03:43:07;11.71;91.83
70928;SHT31;58587;53.034;18.576;2023-05-16T03:45:33;11.66;92.05
70928;SHT31;58587;53.034;18.576;2023-05-16T03:47:58;11.73;92.01
70928;SHT31;58587;53.034;18.576;2023-05-16T03:50:24;11.69;91.62
70928;SHT31;58587;53.034;18.576;2023-05-16T03:52:49;11.73;91.79
70928;SHT31;58587;53.034;18.576;2023-05-16T03:55:15;11.67;91.91
70928;SHT31;58587;53.034;18.576;2023-05-16T03:57:42;11.69;91.61
70928;SHT31;58587;53.034;18.576;2023-05-16T04:00:08;11.69;91.75
70928;SHT31;58587;53.034;18.576;2023-05-16T04:02:35;11.69;91.62
70928;SHT31;58587;53.034;18.576;2023-05-16T04:05:00;11.70;91.67
70928;SHT31;58587;53.034;18.576;2023-05-16T04:07:25;11.71;91.57
70928;SHT31;58587;53.034;18.576;2023-05-16T04:09:52;11.69;91.30
70928;SHT31;58587;53.034;18.576;2023-05-16T04:12:18;11.73;91.19
70928;SHT31;58587;53.034;18.576;2023-05-16T04:14:43;11.76;91.36
70928;SHT31;58587;53.034;18.576;2023-05-16T04:17:09;11.74;91.46
70928;SHT31;58587;53.034;18.576;2023-05-16T04:19:35;11.69;91.00
70928;SHT31;58587;53.034;18.576;2023-05-16T04:22:00;11.63;91.35
70928;SHT31;58587;53.034;18.576;2023-05-16T04:24:25;11.71;91.38
70928;SHT31;58587;53.034;18.576;2023-05-16T04:26:53;11.71;91.58
70928;SHT31;58587;53.034;18.576;2023-05-16T04:29:19;11.81;91.04
70928;SHT31;58587;53.034;18.576;2023-05-16T04:31:45;11.80;91.07
70928;SHT31;58587;53.034;18.576;2023-05-16T04:34:10;11.73;91.22
70928;SHT31;58587;53.034;18.576;2023-05-16T04:36:36;11.76;91.58
70928;SHT31;58587;53.034;18.576;2023-05-16T05:54:19;12.63;86.94
70928;SHT31;58587;53.034;18.576;2023-05-16T05:56:44;12.75;86.96
70928;SHT31;58587;53.034;18.576;2023-05-16T05:59:10;12.76;85.96
70928;SHT31;58587;53.034;18.576;2023-05-16T06:01:35;12.83;86.20
70928;SHT31;58587;53.034;18.576;2023-05-16T06:04:01;12.88;85.52
70928;SHT31;58587;53.034;18.576;2023-05-16T06:06:27;12.93;85.37
70928;SHT31;58587;53.034;18.576;2023-05-16T06:08:53;12.92;85.66
70928;SHT31;58587;53.034;18.576;2023-05-16T06:11:18;12.97;85.01
70928;SHT31;58587;53.034;18.576;2023-05-16T06:13:44;13.10;85.39
70928;SHT31;58587;53.034;18.576;2023-05-16T06:16:09;13.12;83.91
70928;SHT31;58587;53.034;18.576;2023-05-16T06:18:34;13.28;84.39
70928;SHT31;58587;53.034;18.576;2023-05-16T06:21:00;13.39;84.16
70928;SHT31;58587;53.034;18.576;2023-05-16T06:23:25;13.51;83.18
70928;SHT31;58587;53.034;18.576;2023-05-16T06:25:51;13.46;82.58
70928;SHT31;58587;53.034;18.576;2023-05-16T06:28:16;13.56;82.70
70928;SHT31;58587;53.034;18.576;2023-05-16T06:30:41;13.60;83.17
70928;SHT31;58587;53.034;18.576;2023-05-16T06:33:07;13.64;83.34
70928;SHT31;58587;53.034;18.576;2023-05-16T06:35:32;13.67;83.08
70928;SHT31;58587;53.034;18.576;2023-05-16T06:37:57;13.73;83.29
70928;SHT31;58587;53.034;18.576;2023-05-16T06:40:23;13.81;84.00
70928;SHT31;58587;53.034;18.576;2023-05-16T06:42:48;13.87;84.02
70928;SHT31;58587;53.034;18.576;2023-05-16T06:45:14;13.88;83.35
70928;SHT31;58587;53.034;18.576;2023-05-16T06:47:39;13.85;82.62
70928;SHT31;58587;53.034;18.576;2023-05-16T06:50:05;13.87;82.00
70928;SHT31;58587;53.034;18.576;2023-05-16T06:52:31;13.92;81.72
70928;SHT31;58587;53.034;18.576;2023-05-16T06:54:56;14.02;82.15
70928;SHT31;58587;53.034;18.576;2023-05-16T06:57:21;14.05;80.94
70928;SHT31;58587;53.034;18.576;2023-05-16T06:59:47;14.04;80.81
70928;SHT31;58587;53.034;18.576;2023-05-16T07:02:12;14.14;81.84
70928;SHT31;58587;53.034;18.576;2023-05-16T07:04:37;14.18;81.46
70928;SHT31;58587;53.034;18.576;2023-05-16T07:07:03;14.14;80.63
70928;SHT31;58587;53.034;18.576;2023-05-16T07:09:29;14.18;81.14
70928;SHT31;58587;53.034;18.576;2023-05-16T07:11:55;14.11;81.09
70928;SHT31;58587;53.034;18.576;2023-05-16T07:14:20;14.05;81.21
70928;SHT31;58587;53.034;18.576;2023-05-16T07:16:45;14.00;81.29
70928;SHT31;58587;53.034;18.576;2023-05-16T07:19:11;14.04;82.00
70928;SHT31;58587;53.034;18.576;2023-05-16T07:21:36;14.01;81.53
70928;SHT31;58587;53.034;18.576;2023-05-16T07:24:01;13.92;80.48
70928;SHT31;58587;53.034;18.576;2023-05-16T07:26:27;13.95;81.51
70928;SHT31;58587;53.034;18.576;2023-05-16T07:28:52;14.05;82.57
70928;SHT31;58587;53.034;18.576;2023-05-16T07:31:17;14.09;81.50
70928;SHT31;58587;53.034;18.576;2023-05-16T07:33:43;14.07;80.95
70928;SHT31;58587;53.034;18.576;2023-05-16T07:36:11;14.01;81.56
70928;SHT31;58587;53.034;18.576;2023-05-16T07:38:36;13.95;81.41
70928;SHT31;58587;53.034;18.576;2023-05-16T07:41:02;13.85;81.75
70928;SHT31;58587;53.034;18.576;2023-05-16T07:43:27;13.95;82.29
70928;SHT31;58587;53.034;18.576;2023-05-16T07:45:53;14.00;81.10
70928;SHT31;58587;53.034;18.576;2023-05-16T07:48:18;14.11;81.15
70928;SHT31;58587;53.034;18.576;2023-05-16T07:50:44;14.28;80.91
70928;SHT31;58587;53.034;18.576;2023-05-16T07:53:09;14.41;80.64
70928;SHT31;58587;53.034;18.576;2023-05-16T07:55:34;14.52;80.20
70928;SHT31;58587;53.034;18.576;2023-05-16T07:58:00;14.63;80.37
70928;SHT31;58587;53.034;18.576;2023-05-16T08:00:25;14.69;79.05
70928;SHT31;58587;53.034;18.576;2023-05-16T08:02:50;14.72;79.15
70928;SHT31;58587;53.034;18.576;2023-05-16T08:05:16;14.70;78.55
70928;SHT31;58587;53.034;18.576;2023-05-16T08:07:41;14.69;78.47
70928;SHT31;58587;53.034;18.576;2023-05-16T08:10:07;14.56;77.83
70928;SHT31;58587;53.034;18.576;2023-05-16T08:12:32;14.60;77.78
70928;SHT31;58587;53.034;18.576;2023-05-16T08:14:59;14.62;78.30
70928;SHT31;58587;53.034;18.576;2023-05-16T08:17:25;14.70;78.25
70928;SHT31;58587;53.034;18.576;2023-05-16T08:19:50;14.76;78.07
70928;SHT31;58587;53.034;18.576;2023-05-16T08:22:15;14.69;77.82
70928;SHT31;58587;53.034;18.576;2023-05-16T08:24:41;14.76;76.43
70928;SHT31;58587;53.034;18.576;2023-05-16T08:27:06;14.82;76.26
70928;SHT31;58587;53.034;18.576;2023-05-16T08:29:32;14.92;76.41
70928;SHT31;58587;53.034;18.576;2023-05-16T08:31:58;15.11;75.72
70928;SHT31;58587;53.034;18.576;2023-05-16T08:34:23;15.30;75.45
70928;SHT31;58587;53.034;18.576;2023-05-16T08:36:48;15.30;74.41
70928;SHT31;58587;53.034;18.576;2023-05-16T08:39:14;15.33;74.65
70928;SHT31;58587;53.034;18.576;2023-05-16T08:41:39;15.45;74.33
70928;SHT31;58587;53.034;18.576;2023-05-16T08:44:05;15.41;73.77
70928;SHT31;58587;53.034;18.576;2023-05-16T08:46:32;15.51;73.78
70928;SHT31;58587;53.034;18.576;2023-05-16T08:48:59;15.61;74.96
70928;SHT31;58587;53.034;18.576;2023-05-16T08:51:26;15.69;72.84
70928;SHT31;58587;53.034;18.576;2023-05-16T08:54:01;15.78;73.01
70928;SHT31;58587;53.034;18.576;2023-05-16T08:56:27;15.89;72.23
70928;SHT31;58587;53.034;18.576;2023-05-16T08:58:53;15.89;72.74
70928;SHT31;58587;53.034;18.576;2023-05-16T09:01:20;15.92;73.29
70928;SHT31;58587;53.034;18.576;2023-05-16T09:03:46;16.06;73.98
70928;SHT31;58587;53.034;18.576;2023-05-16T09:06:12;16.05;72.76
70928;SHT31;58587;53.034;18.576;2023-05-16T09:08:38;16.08;73.39
70928;SHT31;58587;53.034;18.576;2023-05-16T09:11:03;15.98;71.78
70928;SHT31;58587;53.034;18.576;2023-05-16T09:13:28;16.22;71.22
70928;SHT31;58587;53.034;18.576;2023-05-16T09:16:14;16.13;70.83
70928;SHT31;58587;53.034;18.576;2023-05-16T09:18:42;16.16;71.36
70928;SHT31;58587;53.034;18.576;2023-05-16T09:21:09;16.30;71.26
70928;SHT31;58587;53.034;18.576;2023-05-16T09:23:35;16.30;70.20
70928;SHT31;58587;53.034;18.576;2023-05-16T09:26:00;16.33;70.75
70928;SHT31;58587;53.034;18.576;2023-05-16T09:28:26;16.22;70.74
70928;SHT31;58587;53.034;18.576;2023-05-16T09:30:52;16.08;71.88
70928;SHT31;58587;53.034;18.576;2023-05-16T09:33:24;15.98;72.90
70928;SHT31;58587;53.034;18.576;2023-05-16T09:35:55;15.91;71.85
70928;SHT31;58587;53.034;18.576;2023-05-16T09:38:21;15.64;72.88
70928;SHT31;58587;53.034;18.576;2023-05-16T09:40:46;15.78;73.17
70928;SHT31;58587;53.034;18.576;2023-05-16T09:43:14;15.85;72.71
70928;SHT31;58587;53.034;18.576;2023-05-16T09:45:44;15.96;71.57
70928;SHT31;58587;53.034;18.576;2023-05-16T09:48:10;16.18;71.45
70928;SHT31;58587;53.034;18.576;2023-05-16T09:50:39;16.32;70.38
70928;SHT31;58587;53.034;18.576;2023-05-16T09:53:07;16.55;69.69
70928;SHT31;58587;53.034;18.576;2023-05-16T09:55:33;16.70;68.64
70928;SHT31;58587;53.034;18.576;2023-05-16T09:57:58;16.93;69.82
70928;SHT31;58587;53.034;18.576;2023-05-16T10:00:30;17.03;68.52
70928;SHT31;58587;53.034;18.576;2023-05-16T10:02:57;17.04;67.40
70928;SHT31;58587;53.034;18.576;2023-05-16T10:05:26;16.85;66.93
70928;SHT31;58587;53.034;18.576;2023-05-16T10:07:54;16.88;68.18
70928;SHT31;58587;53.034;18.576;2023-05-16T10:10:20;16.93;67.65
70928;SHT31;58587;53.034;18.576;2023-05-16T10:12:46;17.08;67.71
70928;SHT31;58587;53.034;18.576;2023-05-16T10:15:12;17.41;68.86
70928;SHT31;58587;53.034;18.576;2023-05-16T10:17:39;17.51;66.41
70928;SHT31;58587;53.034;18.576;2023-05-16T10:20:06;17.62;66.71
70928;SHT31;58587;53.034;18.576;2023-05-16T10:22:35;17.78;65.54
70928;SHT31;58587;53.034;18.576;2023-05-16T10:25:09;17.85;65.71
70928;SHT31;58587;53.034;18.576;2023-05-16T10:27:37;17.86;64.65
70928;SHT31;58587;53.034;18.576;2023-05-16T10:30:04;18.06;66.95
70928;SHT31;58587;53.034;18.576;2023-05-16T10:32:31;17.89;63.57
70928;SHT31;58587;53.034;18.576;2023-05-16T10:34:57;17.71;63.31
70928;SHT31;58587;53.034;18.576;2023-05-16T10:37:26;17.68;63.83
70928;SHT31;58587;53.034;18.576;2023-05-16T10:39:51;17.86;64.19
70928;SHT31;58587;53.034;18.576;2023-05-16T10:42:17;18.16;63.87
70928;SHT31;58587;53.034;18.576;2023-05-16T10:44:44;18.43;63.73
70928;SHT31;58587;53.034;18.576;2023-05-16T10:47:09;18.65;61.66
70928;SHT31;58587;53.034;18.576;2023-05-16T10:49:39;18.54;60.57
70928;SHT31;58587;53.034;18.576;2023-05-16T10:52:09;18.71;61.08
70928;SHT31;58587;53.034;18.576;2023-05-16T10:54:36;18.84;61.11
70928;SHT31;58587;53.034;18.576;2023-05-16T10:57:15;19.01;60.87
70928;SHT31;58587;53.034;18.576;2023-05-16T10:59:43;18.87;60.09
70928;SHT31;58587;53.034;18.576;2023-05-16T11:04:49;18.94;59.34
70928;SHT31;58587;53.034;18.576;2023-05-16T11:07:19;19.22;60.68
70928;SHT31;58587;53.034;18.576;2023-05-16T11:09:52;19.18;59.42
70928;SHT31;58587;53.034;18.576;2023-05-16T11:12:35;19.14;60.70
70928;SHT31;58587;53.034;18.576;2023-05-16T11:15:36;18.97;60.25
70928;SHT31;58587;53.034;18.576;2023-05-16T11:18:07;18.95;58.97
70928;SHT31;58587;53.034;18.576;2023-05-16T11:20:36;19.02;60.97
70928;SHT31;58587;53.034;18.576;2023-05-16T11:23:18;18.94;59.58
70928;SHT31;58587;53.034;18.576;2023-05-16T11:25:54;18.97;61.48
70928;SHT31;58587;53.034;18.576;2023-05-16T11:28:20;18.97;60.63
70928;SHT31;58587;53.034;18.576;2023-05-16T11:30:51;18.95;59.77
70928;SHT31;58587;53.034;18.576;2023-05-16T11:33:19;19.14;60.10
70928;SHT31;58587;53.034;18.576;2023-05-16T11:36:04;19.55;59.58
70928;SHT31;58587;53.034;18.576;2023-05-16T11:38:30;19.73;60.29
70928;SHT31;58587;53.034;18.576;2023-05-16T11:41:06;19.84;58.88
70928;SHT31;58587;53.034;18.576;2023-05-16T11:43:40;19.76;58.24
70928;SHT31;58587;53.034;18.576;2023-05-16T11:46:05;19.69;57.55
70928;SHT31;58587;53.034;18.576;2023-05-16T11:48:32;19.55;57.61
70928;SHT31;58587;53.034;18.576;2023-05-16T11:50:57;19.39;58.32
70928;SHT31;58587;53.034;18.576;2023-05-16T11:53:23;19.16;58.27
70928;SHT31;58587;53.034;18.576;2023-05-16T11:55:48;19.14;59.25
70928;SHT31;58587;53.034;18.576;2023-05-16T11:58:17;19.04;58.89
70928;SHT31;58587;53.034;18.576;2023-05-16T12:00:50;19.12;60.16
70928;SHT31;58587;53.034;18.576;2023-05-16T12:03:17;19.07;60.55
70928;SHT31;58587;53.034;18.576;2023-05-16T12:05:52;18.95;59.85
70928;SHT31;58587;53.034;18.576;2023-05-16T12:08:19;18.94;59.26
70928;SHT31;58587;53.034;18.576;2023-05-16T12:10:47;18.85;59.79
70928;SHT31;58587;53.034;18.576;2023-05-16T12:13:12;18.95;59.32
70928;SHT31;58587;53.034;18.576;2023-05-16T12:15:38;18.81;60.59
70928;SHT31;58587;53.034;18.576;2023-05-16T12:18:03;18.87;60.87
70928;SHT31;58587;53.034;18.576;2023-05-16T12:20:29;18.92;60.47
70928;SHT31;58587;53.034;18.576;2023-05-16T12:22:56;18.88;60.30
70928;SHT31;58587;53.034;18.576;2023-05-16T12:25:32;18.87;60.60
70928;SHT31;58587;53.034;18.576;2023-05-16T12:27:59;18.65;58.76
70928;SHT31;58587;53.034;18.576;2023-05-16T12:30:26;18.50;59.41
70928;SHT31;58587;53.034;18.576;2023-05-16T12:33:03;18.43;59.50
70928;SHT31;58587;53.034;18.576;2023-05-16T12:35:33;18.32;60.22
70928;SHT31;58587;53.034;18.576;2023-05-16T12:38:10;18.26;61.17
70928;SHT31;58587;53.034;18.576;2023-05-16T12:40:37;18.14;61.54
70928;SHT31;58587;53.034;18.576;2023-05-16T12:43:04;17.97;61.06
70928;SHT31;58587;53.034;18.576;2023-05-16T12:45:30;18.02;61.09
70928;SHT31;58587;53.034;18.576;2023-05-16T12:48:03;17.99;60.63
70928;SHT31;58587;53.034;18.576;2023-05-16T12:50:29;18.05;60.97
70928;SHT31;58587;53.034;18.576;2023-05-16T12:52:59;18.09;61.41
70928;SHT31;58587;53.034;18.576;2023-05-16T12:55:24;18.13;62.08
70928;SHT31;58587;53.034;18.576;2023-05-16T12:57:51;18.23;62.53
70928;SHT31;58587;53.034;18.576;2023-05-16T13:00:18;18.27;61.44
70928;SHT31;58587;53.034;18.576;2023-05-16T13:02:44;18.36;61.93
70928;SHT31;58587;53.034;18.576;2023-05-16T13:05:10;18.30;62.09
70928;SHT31;58587;53.034;18.576;2023-05-16T13:07:36;18.36;61.66
70928;SHT31;58587;53.034;18.576;2023-05-16T13:10:03;18.50;62.51
70928;SHT31;58587;53.034;18.576;2023-05-16T13:12:30;18.61;62.35
70928;SHT31;58587;53.034;18.576;2023-05-16T13:14:55;18.74;61.30
70928;SHT31;58587;53.034;18.576;2023-05-16T13:17:21;18.71;61.43
70928;SHT31;58587;53.034;18.576;2023-05-16T13:19:48;18.68;61.22
70928;SHT31;58587;53.034;18.576;2023-05-16T13:22:13;18.64;59.76
70928;SHT31;58587;53.034;18.576;2023-05-16T13:24:39;18.48;60.04
70928;SHT31;58587;53.034;18.576;2023-05-16T13:27:04;18.46;60.64
70928;SHT31;58587;53.034;18.576;2023-05-16T13:29:30;18.37;60.08
70928;SHT31;58587;53.034;18.576;2023-05-16T13:31:56;18.30;61.07
70928;SHT31;58587;53.034;18.576;2023-05-16T13:34:21;18.20;61.83
70928;SHT31;58587;53.034;18.576;2023-05-16T13:36:47;18.22;62.31
70928;SHT31;58587;53.034;18.576;2023-05-16T13:39:13;18.20;63.59
70928;SHT31;58587;53.034;18.576;2023-05-16T13:41:38;18.22;64.10
70928;SHT31;58587;53.034;18.576;2023-05-16T13:44:04;18.32;64.95
70928;SHT31;58587;53.034;18.576;2023-05-16T13:46:30;18.46;65.81
70928;SHT31;58587;53.034;18.576;2023-05-16T13:48:55;18.56;66.07
70928;SHT31;58587;53.034;18.576;2023-05-16T13:51:20;18.64;64.95
70928;SHT31;58587;53.034;18.576;2023-05-16T13:53:46;19.01;64.95
70928;SHT31;58587;53.034;18.576;2023-05-16T13:56:11;19.33;63.95
70928;SHT31;58587;53.034;18.576;2023-05-16T13:58:36;19.58;62.57
70928;SHT31;58587;53.034;18.576;2023-05-16T14:01:02;20.07;62.90
70928;SHT31;58587;53.034;18.576;2023-05-16T14:03:27;20.74;62.87
70928;SHT31;58587;53.034;18.576;2023-05-16T14:05:53;20.84;59.02
70928;SHT31;58587;53.034;18.576;2023-05-16T14:08:18;21.25;57.51
70928;SHT31;58587;53.034;18.576;2023-05-16T14:10:43;20.81;57.26
70928;SHT31;58587;53.034;18.576;2023-05-16T14:13:09;20.84;58.87
70928;SHT31;58587;53.034;18.576;2023-05-16T14:15:34;20.85;58.30
70928;SHT31;58587;53.034;18.576;2023-05-16T14:17:59;20.69;56.89
70928;SHT31;58587;53.034;18.576;2023-05-16T14:20:25;20.51;55.98
70928;SHT31;58587;53.034;18.576;2023-05-16T14:22:51;20.40;57.08
70928;SHT31;58587;53.034;18.576;2023-05-16T14:25:16;20.24;58.77
70928;SHT31;58587;53.034;18.576;2023-05-16T14:27:42;19.98;59.27
70928;SHT31;58587;53.034;18.576;2023-05-16T14:30:07;19.92;60.14
70928;SHT31;58587;53.034;18.576;2023-05-16T14:32:33;19.76;60.97
70928;SHT31;58587;53.034;18.576;2023-05-16T14:34:58;20.04;61.76
70928;SHT31;58587;53.034;18.576;2023-05-16T14:37:24;20.06;61.44
70928;SHT31;58587;53.034;18.576;2023-05-16T14:39:50;19.48;61.21
70928;SHT31;58587;53.034;18.576;2023-05-16T14:42:16;19.52;62.60
70928;SHT31;58587;53.034;18.576;2023-05-16T14:44:42;19.82;61.54
70928;SHT31;58587;53.034;18.576;2023-05-16T14:47:07;19.67;62.12
70928;SHT31;58587;53.034;18.576;2023-05-16T14:49:33;19.72;62.18
70928;SHT31;58587;53.034;18.576;2023-05-16T14:51:58;19.59;60.41
70928;SHT31;58587;53.034;18.576;2023-05-16T14:54:23;19.48;61.43
70928;SHT31;58587;53.034;18.576;2023-05-16T14:56:48;19.48;61.35
70928;SHT31;58587;53.034;18.576;2023-05-16T14:59:14;19.32;62.44
70928;SHT31;58587;53.034;18.576;2023-05-16T15:01:40;19.43;62.91
70928;SHT31;58587;53.034;18.576;2023-05-16T15:04:05;19.55;63.10
70928;SHT31;58587;53.034;18.576;2023-05-16T15:06:30;19.43;63.10
70928;SHT31;58587;53.034;18.576;2023-05-16T15:08:56;19.49;64.10
70928;SHT31;58587;53.034;18.576;2023-05-16T15:11:21;19.61;63.23
70928;SHT31;58587;53.034;18.576;2023-05-16T15:13:47;19.49;63.59
70928;SHT31;58587;53.034;18.576;2023-05-16T15:16:13;19.38;63.28
70928;SHT31;58587;53.034;18.576;2023-05-16T15:18:40;19.56;63.51
70928;SHT31;58587;53.034;18.576;2023-05-16T15:21:05;19.42;63.18
70928;SHT31;58587;53.034;18.576;2023-05-16T15:23:31;19.46;64.11
70928;SHT31;58587;53.034;18.576;2023-05-16T15:25:57;19.25;63.42
70928;SHT31;58587;53.034;18.576;2023-05-16T15:28:22;19.15;64.37
70928;SHT31;58587;53.034;18.576;2023-05-16T15:30:47;19.26;65.35
70928;SHT31;58587;53.034;18.576;2023-05-16T15:33:12;19.23;66.16
70928;SHT31;58587;53.034;18.576;2023-05-16T15:35:39;19.11;65.88
70928;SHT31;58587;53.034;18.576;2023-05-16T15:38:04;18.97;64.88
70928;SHT31;58587;53.034;18.576;2023-05-16T15:40:30;18.50;65.58
70928;SHT31;58587;53.034;18.576;2023-05-16T15:42:55;18.53;66.67
70928;SHT31;58587;53.034;18.576;2023-05-16T15:45:21;18.54;67.66
70928;SHT31;58587;53.034;18.576;2023-05-16T15:47:46;18.44;66.79
70928;SHT31;58587;53.034;18.576;2023-05-16T15:50:11;18.32;67.61
70928;SHT31;58587;53.034;18.576;2023-05-16T15:52:37;18.23;67.44
70928;SHT31;58587;53.034;18.576;2023-05-16T15:55:04;18.02;68.46
70928;SHT31;58587;53.034;18.576;2023-05-16T15:57:29;18.03;68.55
70928;SHT31;58587;53.034;18.576;2023-05-16T15:59:55;18.00;68.47
70928;SHT31;58587;53.034;18.576;2023-05-16T16:02:20;18.00;68.73
70928;SHT31;58587;53.034;18.576;2023-05-16T16:04:45;18.00;69.78
70928;SHT31;58587;53.034;18.576;2023-05-16T16:07:13;17.87;69.36
70928;SHT31;58587;53.034;18.576;2023-05-16T16:09:39;17.90;70.42
70928;SHT31;58587;53.034;18.576;2023-05-16T16:12:04;17.79;69.96
70928;SHT31;58587;53.034;18.576;2023-05-16T16:14:30;17.75;70.13
70928;SHT31;58587;53.034;18.576;2023-05-16T16:16:55;17.72;70.87
70928;SHT31;58587;53.034;18.576;2023-05-16T16:19:20;17.68;70.86
70928;SHT31;58587;53.034;18.576;2023-05-16T16:21:45;17.59;70.13
70928;SHT31;58587;53.034;18.576;2023-05-16T16:24:11;17.48;68.94
70928;SHT31;58587;53.034;18.576;2023-05-16T16:26:37;17.42;69.25
70928;SHT31;58587;53.034;18.576;2023-05-16T16:29:02;17.36;69.66
70928;SHT31;58587;53.034;18.576;2023-05-16T16:31:28;17.34;70.10
70928;SHT31;58587;53.034;18.576;2023-05-16T16:33:53;17.31;69.93
70928;SHT31;58587;53.034;18.576;2023-05-16T16:36:18;17.31;69.85
70928;SHT31;58587;53.034;18.576;2023-05-16T16:38:44;17.10;69.72